HTSU

Sumbawanga Airport

Sumbawanga, Tanzania
METAR HTSU 221400Z 16004KT 9999 BKN020 FEW022CB 23/14 Q1018
Observed Flight Rules
Apr-22 @ 14:00 UTC (8 hours ago) Marginal Visual Flight Rules
Wind Visibility Clouds
160° at 4 knots 10,000+ meters
  • Broken at 2,000' AGL
  • Few at 2,200' AGL
Temperatures Readings
Current 23°C / 73°F
Dewpoint 14°C / 57°F
Humidity 57%
Altimeter 30.06" Hg
Pressure 1018 hPa
Elevation 1804
METAR HTSU 221400Z 16004KT 9999 BKN020 FEW022CB 23/14 Q1018
Observed Flight Rules
Apr-22 @ 14:00 UTC
(8 hours ago)
MVFR
Wind Visibility
160° at 4 knots 10,000+ meters
Clouds
  • Broken at 2,000' AGL
  • Few at 2,200' AGL
Temperature Dewpoint
23°C / 73°F 14°C / 57°F
Humidity Altimeter Pressure
57% 30.06" Hg 1018 hPa